Time,TemperatureF,DewpointF,PressureIn,WindDirection,WindDirectionDegrees,WindSpeedMPH,WindSpeedGustMPH,Humidity,HourlyPrecipIn,Conditions,Clouds,dailyrainin,SoftwareType,DateUTC
2013-04-21 00:00:00,49.4,22.2,30.14,NNW,338,7.0,18.0,34,0.00,,---,0.00,VWS V14.01,2013-04-21 04:00:00,
2013-04-21 00:30:00,47.0,20.8,30.16,North,0,8.0,21.0,35,0.00,,---,0.00,VWS V14.01,2013-04-21 04:30:00,
2013-04-21 01:00:00,44.9,18.9,30.19,North,0,6.0,16.0,35,0.00,,---,0.00,VWS V14.01,2013-04-21 05:00:00,
2013-04-21 01:30:00,43.1,17.3,30.22,North,0,8.0,22.0,35,0.00,,---,0.00,VWS V14.01,2013-04-21 05:30:00,
2013-04-21 02:00:00,41.8,16.2,30.23,North,0,7.0,18.0,35,0.00,,---,0.00,VWS V14.01,2013-04-21 06:00:00,
2013-04-21 02:30:00,40.6,15.1,30.24,North,0,7.0,18.0,35,0.00,,---,0.00,VWS V14.01,2013-04-21 06:30:00,
2013-04-21 03:00:00,39.5,14.1,30.25,North,0,7.0,16.0,35,0.00,,---,0.00,VWS V14.01,2013-04-21 07:00:00,
2013-04-21 03:30:00,38.5,13.2,30.28,North,0,7.0,18.0,35,0.00,,---,0.00,VWS V14.01,2013-04-21 07:30:00,
2013-04-21 04:00:00,37.8,13.3,30.29,North,0,5.0,14.0,36,0.00,,---,0.00,VWS V14.01,2013-04-21 08:00:00,
2013-04-21 04:30:00,37.5,12.4,30.29,NNW,338,7.0,20.0,35,0.00,,---,0.00,VWS V14.01,2013-04-21 08:30:00,
2013-04-21 05:00:00,36.9,11.8,30.30,North,0,6.0,16.0,35,0.00,,---,0.00,VWS V14.01,2013-04-21 09:00:00,
2013-04-21 05:30:00,36.6,11.6,30.31,North,0,7.0,18.0,35,0.00,,---,0.00,VWS V14.01,2013-04-21 09:30:00,
2013-04-21 06:00:00,36.2,11.2,30.33,NNW,338,5.0,13.0,35,0.00,,---,0.00,VWS V14.01,2013-04-21 10:00:00,
2013-04-21 06:30:00,35.9,10.9,30.35,NNW,338,5.0,14.0,35,0.00,,---,0.00,VWS V14.01,2013-04-21 10:30:00,
2013-04-21 07:00:00,35.6,10.7,30.37,NNW,338,5.0,14.0,35,0.00,,---,0.00,VWS V14.01,2013-04-21 11:00:00,
2013-04-21 07:30:00,35.5,10.6,30.39,North,0,3.0,11.0,35,0.00,,---,0.00,VWS V14.01,2013-04-21 11:30:00,
2013-04-21 08:00:00,35.9,10.9,30.41,NNW,338,3.0,11.0,35,0.00,,---,0.00,VWS V14.01,2013-04-21 12:00:00,
2013-04-21 08:30:00,36.8,11.7,30.43,NNW,338,5.0,14.0,35,0.00,,---,0.00,VWS V14.01,2013-04-21 12:30:00,
2013-04-21 09:00:00,37.8,12.6,30.44,NNW,338,5.0,17.0,35,0.00,,---,0.00,VWS V14.01,2013-04-21 13:00:00,
2013-04-21 09:30:00,38.9,13.6,30.45,North,0,6.0,15.0,35,0.00,,---,0.00,VWS V14.01,2013-04-21 13:30:00,
2013-04-21 10:00:00,39.9,13.8,30.46,North,0,6.0,14.0,34,0.00,,---,0.00,VWS V14.01,2013-04-21 14:00:00,
2013-04-21 10:30:00,40.5,14.4,30.46,North,0,7.0,17.0,34,0.00,,---,0.00,VWS V14.01,2013-04-21 14:30:00,
2013-04-21 11:00:00,41.8,15.5,30.47,North,0,6.0,16.0,34,0.00,,---,0.00,VWS V14.01,2013-04-21 15:00:00,
2013-04-21 11:30:00,42.6,16.2,30.48,North,0,6.0,15.0,34,0.00,,---,0.00,VWS V14.01,2013-04-21 15:30:00,
2013-04-21 12:00:00,43.8,17.3,30.48,NNW,338,5.0,14.0,34,0.00,,---,0.00,VWS V14.01,2013-04-21 16:00:00,
2013-04-21 12:30:00,45.1,18.4,30.50,NNW,338,6.0,14.0,34,0.00,,---,0.00,VWS V14.01,2013-04-21 16:30:00,
2013-04-21 13:00:00,45.8,19.0,30.49,North,0,5.0,16.0,34,0.00,,---,0.00,VWS V14.01,2013-04-21 17:00:00,
2013-04-21 13:30:00,46.7,19.1,30.49,North,0,6.0,15.0,33,0.00,,---,0.00,VWS V14.01,2013-04-21 17:30:00,
2013-04-21 14:00:00,48.2,20.5,30.49,NNW,338,5.0,15.0,33,0.00,,---,0.00,VWS V14.01,2013-04-21 18:00:00,
2013-04-21 14:30:00,48.9,21.1,30.48,North,0,6.0,16.0,33,0.00,,---,0.00,VWS V14.01,2013-04-21 18:30:00,
2013-04-21 15:00:00,49.8,21.9,30.48,North,0,5.0,17.0,33,0.00,,---,0.00,VWS V14.01,2013-04-21 19:00:00,
2013-04-21 15:30:00,51.3,23.2,30.48,North,0,5.0,14.0,33,0.00,,---,0.00,VWS V14.01,2013-04-21 19:30:00,
2013-04-21 16:00:00,52.0,23.8,30.47,NNW,338,5.0,13.0,33,0.00,,---,0.00,VWS V14.01,2013-04-21 20:00:00,
2013-04-21 16:30:00,52.5,24.2,30.47,North,0,5.0,14.0,33,0.00,,---,0.00,VWS V14.01,2013-04-21 20:30:00,
2013-04-21 17:00:00,53.8,25.4,30.46,NW,315,3.0,13.0,33,0.00,,---,0.00,VWS V14.01,2013-04-21 21:00:00,
2013-04-21 17:30:00,54.2,25.7,30.46,NNW,338,3.0,9.0,33,0.00,,---,0.00,VWS V14.01,2013-04-21 21:30:00,
2013-04-21 18:00:00,53.9,24.7,30.46,North,0,4.0,12.0,32,0.00,,---,0.00,VWS V14.01,2013-04-21 22:00:00,
2013-04-21 18:30:00,51.0,23.6,30.47,NW,315,3.0,11.0,34,0.00,,---,0.00,VWS V14.01,2013-04-21 22:30:00,
2013-04-21 19:00:00,48.6,21.5,30.49,South,180,6.0,15.0,34,0.00,,---,0.00,VWS V14.01,2013-04-21 23:00:00,
2013-04-21 19:30:00,47.9,20.9,30.50,South,180,5.0,12.0,34,0.00,,---,0.00,VWS V14.01,2013-04-21 23:30:00,
2013-04-21 20:00:00,47.3,21.0,30.51,South,180,3.0,11.0,35,0.00,,---,0.00,VWS V14.01,2013-04-22 00:00:00,
2013-04-21 20:30:00,46.1,20.6,30.53,SE,135,3.0,9.0,36,0.00,,---,0.00,VWS V14.01,2013-04-22 00:30:00,
2013-04-21 21:00:00,44.3,19.0,30.54,SE,135,3.0,11.0,36,0.00,,---,0.00,VWS V14.01,2013-04-22 01:00:00,
2013-04-21 21:30:00,43.2,18.1,30.56,SSE,158,2.0,9.0,36,0.00,,---,0.00,VWS V14.01,2013-04-22 01:30:00,
2013-04-21 22:00:00,42.6,17.5,30.57,South,180,2.0,10.0,36,0.00,,---,0.00,VWS V14.01,2013-04-22 02:00:00,
2013-04-21 22:30:00,41.3,17.0,30.58,South,180,0.0,2.0,37,0.00,,---,0.00,VWS V14.01,2013-04-22 02:30:00,
2013-04-21 23:00:00,40.6,16.4,30.59,South,180,0.0,0.0,37,0.00,,---,0.00,VWS V14.01,2013-04-22 03:00:00,
2013-04-21 23:30:00,39.9,15.8,30.60,South,180,0.0,0.0,37,0.00,,---,0.00,VWS V14.01,2013-04-22 03:30:00,